Aviation Digital Data Service (ADDS)

Output produced by METARs form (0534 UTC 31 October 2014)
found at http://aviationweather.gov/adds/metars/
 
KGNV 310239Z 3103/3124 35004KT P6SM SCT040 BKN080 
     FM310500 34006KT P6SM SCT015 BKN040 
     FM311500 32008KT P6SM FEW040